Time;durP1;ratioP1;P1;durP2;ratioP2;P2;SDS_P1;SDS_P2;PMS_P1;PMS_P2;Temp;Humidity;BMP_temperature;BMP_pressure;BME280_temperature;BME280_humidity;BME280_pressure;Samples;Min_cycle;Max_cycle;Signal;HPM_P1;HPM_P2
2022/09/28 00:01:20;;;;;;;4.57;2.45;;;7.70;99.90;;;;;;4952966;29;20051;-76
2022/09/28 00:03:49;;;;;;;6.10;2.75;;;7.70;99.90;;;;;;4935390;29;20039;-76
2022/09/28 00:06:19;;;;;;;7.82;3.20;;;7.70;99.90;;;;;;4936774;29;20055;-75
2022/09/28 00:08:48;;;;;;;4.32;2.35;;;7.80;99.90;;;;;;4949811;29;20119;-76
2022/09/28 00:11:18;;;;;;;5.45;2.58;;;7.80;99.90;;;;;;4936478;29;20063;-76
2022/09/28 00:13:52;;;;;;;5.75;2.63;;;7.80;99.90;;;;;;4953539;28;20424;-75
2022/09/28 00:16:23;;;;;;;6.88;2.53;;;7.90;99.90;;;;;;4944887;29;20459;-77
2022/09/28 00:18:51;;;;;;;6.88;2.60;;;8.00;99.90;;;;;;4941608;28;20036;-76
2022/09/28 00:21:21;;;;;;;6.32;2.60;;;8.00;99.90;;;;;;4952156;29;20040;-76
2022/09/28 00:24:13;;;;;;;6.05;2.53;;;8.00;99.90;;;;;;4952219;28;20413;-77
2022/09/28 00:26:46;;;;;;;6.07;2.92;;;8.00;99.90;;;;;;4947195;29;20135;-75
2022/09/28 00:29:21;;;;;;;6.93;2.63;;;8.00;99.90;;;;;;4948095;28;20048;-77
2022/09/28 00:31:52;;;;;;;4.00;2.15;;;8.00;99.90;;;;;;4954908;28;20405;-76
2022/09/28 00:34:19;;;;;;;6.68;2.30;;;8.00;99.90;;;;;;4936383;29;20509;-71
2022/09/28 00:36:47;;;;;;;5.70;2.45;;;8.00;99.90;;;;;;4935679;29;20047;-75
2022/09/28 00:39:16;;;;;;;3.92;2.28;;;8.10;99.90;;;;;;4952084;28;20035;-76
2022/09/28 00:41:45;;;;;;;3.00;2.10;;;8.00;99.90;;;;;;4936010;29;20043;-75
2022/09/28 00:44:24;;;;;;;6.05;2.40;;;8.00;99.90;;;;;;4952865;28;20066;-75
2022/09/28 00:47:03;;;;;;;5.95;2.40;;;8.00;99.90;;;;;;4951776;28;20047;-76
2022/09/28 00:49:51;;;;;;;6.70;2.00;;;8.00;99.90;;;;;;4935970;29;20047;-76
2022/09/28 00:52:25;;;;;;;6.05;2.13;;;8.10;99.90;;;;;;4951316;28;20367;-76
2022/09/28 00:54:56;;;;;;;4.55;2.20;;;8.10;99.90;;;;;;4952349;28;20050;-76
2022/09/28 00:57:24;;;;;;;3.45;2.00;;;8.20;99.90;;;;;;4951164;28;20035;-77
2022/09/28 00:59:51;;;;;;;5.85;2.53;;;8.10;99.90;;;;;;4951854;28;20490;-74
2022/09/28 01:02:19;;;;;;;4.15;2.20;;;8.10;99.90;;;;;;4951358;28;20584;-76
2022/09/28 01:04:48;;;;;;;5.05;2.28;;;8.10;99.90;;;;;;4952833;28;20500;-76
2022/09/28 01:07:17;;;;;;;5.25;1.98;;;8.10;99.90;;;;;;4935246;29;20055;-76
2022/09/28 01:09:45;;;;;;;5.82;2.00;;;8.10;99.90;;;;;;4951349;28;20465;-74
2022/09/28 01:12:12;;;;;;;8.20;2.40;;;8.10;99.90;;;;;;4955937;28;20042;-76
2022/09/28 01:14:41;;;;;;;8.55;2.13;;;8.10;99.90;;;;;;4935841;29;20047;-76
2022/09/28 01:17:15;;;;;;;7.75;2.60;;;8.10;99.90;;;;;;4962218;28;20043;-75
2022/09/28 01:20:25;;;;;;;5.07;2.00;;;8.10;99.90;;;;;;4948731;29;20036;-76
2022/09/28 01:23:17;;;;;;;3.38;1.77;;;8.20;99.90;;;;;;4949927;29;20039;-77
2022/09/28 01:25:51;;;;;;;;;;;8.30;99.90;;;;;;4939179;29;20075;-75
2022/09/28 01:28:22;;;;;;;5.03;2.00;;;8.30;99.90;;;;;;4951016;29;19953;-75
2022/09/28 01:30:55;;;;;;;6.63;1.85;;;8.20;99.90;;;;;;4949973;29;20499;-76
2022/09/28 01:33:27;;;;;;;4.63;1.90;;;8.20;99.90;;;;;;4946665;29;20179;-76
2022/09/28 01:36:14;;;;;;;3.58;1.75;;;8.20;99.90;;;;;;4955054;28;20545;-75
2022/09/28 01:39:13;;;;;;;3.58;1.70;;;8.20;99.90;;;;;;4951465;28;20644;-75
2022/09/28 01:41:45;;;;;;;4.05;1.60;;;8.20;99.90;;;;;;4949790;28;20036;-75
2022/09/28 01:44:16;;;;;;;2.95;1.60;;;8.20;99.90;;;;;;4960844;28;20055;-77
2022/09/28 01:46:48;;;;;;;3.05;1.77;;;8.10;99.90;;;;;;4965412;28;20051;-77
2022/09/28 01:49:15;;;;;;;3.08;1.48;;;8.20;99.90;;;;;;4918428;29;20051;-77
2022/09/28 01:52:20;;;;;;;3.67;1.70;;;8.10;99.90;;;;;;4966252;28;20054;-76
2022/09/28 01:55:05;;;;;;;3.47;1.58;;;8.10;99.90;;;;;;4945898;29;20654;-76
2022/09/28 01:57:57;;;;;;;2.50;1.48;;;8.10;99.90;;;;;;4941985;28;20043;-75
2022/09/28 02:00:26;;;;;;;2.40;1.45;;;8.10;99.90;;;;;;4932278;29;20102;-76
2022/09/28 02:03:17;;;;;;;3.15;1.52;;;8.20;99.90;;;;;;4948052;29;20107;-76
2022/09/28 02:05:57;;;;;;;4.50;1.50;;;8.10;99.90;;;;;;4945956;28;20047;-75
2022/09/28 02:08:35;;;;;;;3.63;1.40;;;8.10;99.90;;;;;;4972860;28;20035;-76
2022/09/28 02:11:13;;;;;;;3.17;1.33;;;8.10;99.90;;;;;;4962035;28;20118;-75
2022/09/28 02:14:20;;;;;;;3.13;1.30;;;8.10;99.90;;;;;;4948613;29;20450;-76
2022/09/28 02:16:53;;;;;;;3.70;1.40;;;8.10;99.90;;;;;;4920649;29;20550;-76
2022/09/28 02:19:27;;;;;;;2.08;1.33;;;8.10;99.90;;;;;;4929470;29;20072;-76
2022/09/28 02:22:30;;;;;;;6.70;1.50;;;8.10;99.90;;;;;;4913030;29;20146;-76
2022/09/28 02:25:00;;;;;;;5.18;1.40;;;8.10;99.90;;;;;;4914333;29;20044;-75
2022/09/28 02:27:59;;;;;;;3.63;1.40;;;8.10;99.90;;;;;;4913895;29;20051;-76
2022/09/28 02:30:32;;;;;;;2.70;1.20;;;8.10;99.90;;;;;;4911260;29;20263;-76
2022/09/28 02:33:07;;;;;;;;;;;8.10;99.90;;;;;;4893531;29;20063;-75
2022/09/28 02:35:36;;;;;;;2.22;1.30;;;8.10;99.90;;;;;;4927826;29;20362;-75
2022/09/28 02:38:03;;;;;;;3.03;1.67;;;8.10;99.90;;;;;;4915141;29;20051;-74
2022/09/28 02:40:33;;;;;;;3.08;1.50;;;8.10;99.90;;;;;;4936853;28;20060;-76
2022/09/28 02:43:23;;;;;;;4.20;1.50;;;8.10;99.90;;;;;;4915962;29;20215;-76
2022/09/28 02:46:02;;;;;;;2.60;1.20;;;8.10;99.90;;;;;;4925157;29;20052;-76
2022/09/28 02:48:51;;;;;;;3.97;1.30;;;8.10;99.90;;;;;;4940062;28;20145;-75
2022/09/28 02:52:01;;;;;;;4.80;1.35;;;8.20;99.90;;;;;;4952764;28;20051;-77
2022/09/28 02:54:40;;;;;;;3.78;1.40;;;8.20;99.90;;;;;;4934994;29;20069;-77
2022/09/28 02:57:41;;;;;;;3.75;1.40;;;8.20;99.90;;;;;;4927367;28;20050;-75
2022/09/28 03:00:21;;;;;;;4.00;1.52;;;8.20;99.90;;;;;;4952676;29;20043;-75
2022/09/28 03:03:20;;;;;;;4.88;1.40;;;8.20;99.90;;;;;;4938346;29;20055;-76
2022/09/28 03:06:00;;;;;;;3.45;1.55;;;8.20;99.90;;;;;;4951665;29;20091;-76
2022/09/28 03:08:36;;;;;;;4.55;1.55;;;8.20;99.90;;;;;;4937327;28;20090;-77
2022/09/28 03:11:09;;;;;;;3.40;1.33;;;8.10;99.90;;;;;;4955939;28;20041;-77
2022/09/28 03:13:37;;;;;;;3.40;1.50;;;8.10;99.90;;;;;;4951533;28;20139;-76
2022/09/28 03:16:13;;;;;;;2.85;1.40;;;8.10;99.90;;;;;;4956073;28;20054;-76
2022/09/28 03:18:43;;;;;;;2.85;1.60;;;8.10;99.90;;;;;;4936474;29;20047;-76
2022/09/28 03:21:12;;;;;;;1.83;1.20;;;8.10;99.90;;;;;;4937668;29;20047;-76
2022/09/28 03:23:40;;;;;;;3.13;1.30;;;8.10;99.90;;;;;;4954739;29;20051;-76
2022/09/28 03:26:09;;;;;;;4.13;1.60;;;8.10;99.90;;;;;;4954615;29;20094;-77
2022/09/28 03:28:37;;;;;;;6.88;1.80;;;8.10;99.90;;;;;;4959690;28;20053;-76
2022/09/28 03:31:06;;;;;;;3.45;1.63;;;8.10;99.90;;;;;;4956052;28;20048;-77
2022/09/28 03:33:34;;;;;;;3.97;1.45;;;8.10;99.90;;;;;;4955723;28;20055;-77
2022/09/28 03:36:01;;;;;;;3.38;1.80;;;8.10;99.90;;;;;;4973932;28;20552;-76
2022/09/28 03:38:29;;;;;;;6.75;1.80;;;8.10;99.90;;;;;;4935544;28;20051;-76
2022/09/28 03:40:58;;;;;;;3.20;1.50;;;8.10;99.90;;;;;;4944630;29;20072;-77
2022/09/28 03:43:30;;;;;;;5.88;1.90;;;8.10;99.90;;;;;;4949520;29;20050;-77
2022/09/28 03:46:00;;;;;;;3.08;1.50;;;8.10;99.90;;;;;;4935092;29;20062;-76
2022/09/28 03:48:32;;;;;;;5.18;1.85;;;8.20;99.90;;;;;;4974431;28;20054;-76
2022/09/28 03:51:07;;;;;;;2.50;1.20;;;8.20;99.90;;;;;;4937463;29;20062;-78
2022/09/28 03:53:35;;;;;;;3.85;1.90;;;8.20;99.90;;;;;;4956678;28;20421;-78
2022/09/28 03:56:05;;;;;;;4.28;1.73;;;8.30;99.90;;;;;;4951609;29;20127;-76
2022/09/28 03:58:33;;;;;;;3.25;1.80;;;8.30;99.90;;;;;;4939905;29;20078;-78
2022/09/28 04:01:05;;;;;;;4.32;1.60;;;8.30;99.90;;;;;;4951914;29;20318;-77
2022/09/28 04:03:33;;;;;;;2.25;1.40;;;8.30;99.90;;;;;;4947087;28;20118;-76
2022/09/28 04:06:01;;;;;;;3.13;1.90;;;8.30;99.90;;;;;;4955919;28;20418;-76
2022/09/28 04:08:28;;;;;;;3.83;1.80;;;8.30;99.90;;;;;;4938873;28;20345;-77
2022/09/28 04:10:57;;;;;;;3.80;1.58;;;8.30;99.90;;;;;;4940529;29;20077;-76
2022/09/28 04:13:25;;;;;;;3.95;1.85;;;8.30;99.90;;;;;;4935999;29;20159;-76
2022/09/28 04:15:57;;;;;;;6.22;1.95;;;8.30;99.90;;;;;;4954214;28;20525;-76
2022/09/28 04:18:27;;;;;;;4.85;2.00;;;8.30;99.90;;;;;;4951867;29;20047;-76
2022/09/28 04:21:12;;;;;;;4.28;2.08;;;8.30;99.90;;;;;;4946359;28;20423;-76
2022/09/28 04:23:43;;;;;;;4.22;1.80;;;8.30;99.90;;;;;;4959471;28;20495;-76
2022/09/28 04:26:19;;;;;;;4.40;2.10;;;8.40;99.90;;;;;;4936536;29;20541;-77
2022/09/28 04:31:51;;;;;;;3.42;1.92;;;8.40;99.90;;;;;;4940905;29;20494;-77
2022/09/28 04:34:22;;;;;;;4.25;2.38;;;8.30;99.90;;;;;;4931264;29;20048;-77
2022/09/28 04:36:50;;;;;;;4.72;2.25;;;8.30;99.90;;;;;;4943788;28;20089;-77
2022/09/28 04:39:18;;;;;;;4.35;2.20;;;8.30;99.90;;;;;;4934940;29;20122;-77
2022/09/28 04:41:48;;;;;;;4.00;2.30;;;8.40;99.90;;;;;;4937089;29;20053;-77
2022/09/28 04:44:16;;;;;;;5.72;3.15;;;8.40;99.90;;;;;;4938673;29;20479;-77
2022/09/28 04:46:45;;;;;;;6.15;3.00;;;8.40;99.90;;;;;;4940502;29;20053;-77
2022/09/28 04:49:28;;;;;;;4.68;2.50;;;8.40;99.90;;;;;;4941372;28;20059;-77
2022/09/28 04:51:57;;;;;;;6.07;4.18;;;8.50;99.90;;;;;;4956501;28;20035;-77
2022/09/28 04:54:25;;;;;;;6.38;3.55;;;8.50;99.90;;;;;;4935718;29;20051;-76
2022/09/28 04:56:54;;;;;;;7.28;3.70;;;8.50;99.90;;;;;;4959862;29;20067;-75
2022/09/28 04:59:22;;;;;;;6.45;4.05;;;8.50;99.90;;;;;;4956871;28;20130;-76
2022/09/28 05:01:49;;;;;;;5.18;3.60;;;8.60;99.90;;;;;;4963109;28;20139;-77
2022/09/28 05:04:37;;;;;;;7.78;3.88;;;8.60;99.90;;;;;;4939457;29;20071;-75
2022/09/28 05:07:23;;;;;;;5.35;3.20;;;8.60;99.90;;;;;;4953617;28;20474;-75
2022/09/28 05:09:50;;;;;;;5.78;3.28;;;8.60;99.90;;;;;;4952154;29;20059;-75
2022/09/28 05:12:18;;;;;;;5.10;2.70;;;8.60;99.90;;;;;;4936212;29;20091;-77
2022/09/28 05:14:46;;;;;;;4.90;2.88;;;8.60;99.90;;;;;;4931751;29;20047;-76
2022/09/28 05:17:14;;;;;;;5.43;2.60;;;8.70;99.90;;;;;;4957999;28;20047;-76
2022/09/28 05:19:58;;;;;;;4.88;2.95;;;8.70;99.90;;;;;;4940576;29;20564;-77
2022/09/28 05:22:25;;;;;;;6.45;3.17;;;8.70;99.90;;;;;;4936197;29;20047;-78
2022/09/28 05:24:54;;;;;;;6.85;3.38;;;8.70;99.90;;;;;;4946873;28;20413;-77
2022/09/28 05:27:29;;;;;;;5.88;3.13;;;8.70;99.90;;;;;;4926826;29;20433;-77
2022/09/28 05:30:04;;;;;;;5.88;3.03;;;8.80;99.90;;;;;;4919639;29;20062;-76
2022/09/28 05:32:58;;;;;;;5.75;2.45;;;8.80;99.90;;;;;;4963075;28;20127;-75
2022/09/28 05:35:33;;;;;;;6.18;3.00;;;8.80;99.90;;;;;;4968968;28;20756;-77
2022/09/28 05:38:04;;;;;;;9.13;3.03;;;8.80;99.90;;;;;;4966578;28;20524;-77
2022/09/28 05:40:32;;;;;;;5.07;3.00;;;8.90;99.90;;;;;;4935105;28;20532;-77
2022/09/28 05:43:03;;;;;;;7.45;3.10;;;8.90;99.90;;;;;;4962756;28;20047;-76
2022/09/28 05:45:31;;;;;;;5.90;3.17;;;8.90;99.90;;;;;;4933231;29;20047;-77
2022/09/28 05:47:59;;;;;;;6.63;3.35;;;8.90;99.90;;;;;;4950335;28;20049;-76
2022/09/28 05:50:26;;;;;;;6.25;2.70;;;8.90;99.90;;;;;;4950550;28;20047;-75
2022/09/28 05:53:03;;;;;;;9.13;4.28;;;8.90;99.90;;;;;;4934581;29;20134;-77
2022/09/28 05:55:31;;;;;;;6.82;2.75;;;9.00;99.90;;;;;;4932407;29;20055;-76
2022/09/28 05:58:00;;;;;;;6.32;2.90;;;9.00;99.90;;;;;;4941609;28;20486;-75
2022/09/28 06:00:30;;;;;;;3.90;2.20;;;8.90;99.90;;;;;;4946779;28;20091;-76
2022/09/28 06:03:06;;;;;;;9.32;2.92;;;8.90;99.90;;;;;;4934982;29;20495;-76
2022/09/28 06:05:38;;;;;;;5.70;2.95;;;8.90;99.90;;;;;;4963322;28;20039;-77
2022/09/28 06:08:09;;;;;;;4.05;2.53;;;8.90;99.90;;;;;;4942837;28;20035;-76
2022/09/28 06:10:38;;;;;;;;;;;9.00;99.90;;;;;;4951487;29;20552;-76
2022/09/28 06:13:06;;;;;;;6.10;2.42;;;9.00;99.90;;;;;;4950559;28;19922;-76
2022/09/28 06:15:34;;;;;;;5.75;2.08;;;9.00;99.90;;;;;;4953401;28;20537;-77
2022/09/28 06:18:08;;;;;;;4.32;2.00;;;9.10;99.90;;;;;;4938042;29;20042;-77
2022/09/28 06:20:41;;;;;;;5.28;2.10;;;9.20;99.90;;;;;;4938737;29;20465;-77
2022/09/28 06:23:13;;;;;;;5.00;2.10;;;9.20;99.90;;;;;;4936315;29;20040;-77
2022/09/28 06:25:42;;;;;;;3.90;2.05;;;9.20;99.90;;;;;;4964367;28;20498;-77
2022/09/28 06:28:13;;;;;;;4.85;2.20;;;9.30;99.90;;;;;;4938244;29;20444;-76
2022/09/28 06:30:42;;;;;;;3.83;2.17;;;9.30;99.90;;;;;;4959882;28;20054;-74
2022/09/28 06:33:15;;;;;;;6.28;2.28;;;9.30;99.90;;;;;;4972578;28;20074;-72
2022/09/28 06:35:42;;;;;;;3.42;1.98;;;9.30;99.90;;;;;;4952809;29;20426;-75
2022/09/28 06:38:10;;;;;;;5.18;2.20;;;9.40;99.90;;;;;;4970920;29;20608;-74
2022/09/28 06:40:38;;;;;;;4.03;1.83;;;9.40;99.90;;;;;;4972299;29;20067;-74
2022/09/28 06:43:13;;;;;;;3.97;1.90;;;9.50;99.90;;;;;;4970907;28;20390;-75
2022/09/28 06:46:00;;;;;;;7.57;2.05;;;9.50;99.90;;;;;;4961998;29;20028;-75
2022/09/28 06:49:02;;;;;;;4.75;2.22;;;9.50;99.90;;;;;;4984179;28;20054;-75
2022/09/28 06:51:52;;;;;;;4.32;2.10;;;9.50;99.90;;;;;;4979881;28;20054;-74
2022/09/28 06:54:45;;;;;;;3.45;1.90;;;9.50;99.90;;;;;;4993419;28;20058;-75
2022/09/28 06:57:28;;;;;;;5.85;2.30;;;9.60;99.90;;;;;;4987802;28;20039;-74
2022/09/28 06:59:56;;;;;;;4.28;2.20;;;9.60;99.90;;;;;;4952816;28;20070;-74
2022/09/28 07:02:23;;;;;;;4.68;1.75;;;9.60;99.90;;;;;;4987970;28;20039;-74
2022/09/28 07:05:11;;;;;;;3.03;1.75;;;9.60;99.90;;;;;;4976814;28;20725;-72
2022/09/28 07:07:58;;;;;;;4.90;1.85;;;9.60;99.90;;;;;;4949570;28;20398;-73
2022/09/28 07:10:58;;;;;;;2.95;1.50;;;9.60;99.90;;;;;;4912005;29;20233;-74
2022/09/28 07:13:41;;;;;;;3.00;1.52;;;9.60;99.90;;;;;;4910652;29;20100;-73
2022/09/28 07:16:19;;;;;;;7.25;3.65;;;9.60;99.90;;;;;;4918670;29;20510;-74
2022/09/28 07:18:53;;;;;;;4.57;1.80;;;9.60;99.90;;;;;;4931890;29;20076;-75
2022/09/28 07:21:20;;;;;;;4.40;1.80;;;9.60;99.90;;;;;;4928688;29;20127;-74
2022/09/28 07:23:58;;;;;;;5.68;1.80;;;9.50;99.90;;;;;;4910717;29;20064;-76
2022/09/28 07:26:32;;;;;;;4.72;1.80;;;9.50;99.90;;;;;;4910642;29;20566;-75
2022/09/28 07:28:59;;;;;;;3.70;1.50;;;9.50;99.90;;;;;;4921835;29;20597;-72
2022/09/28 07:31:38;;;;;;;5.22;1.67;;;9.70;99.90;;;;;;4937387;29;20060;-73
2022/09/28 07:34:40;;;;;;;4.75;1.70;;;9.70;99.90;;;;;;4911952;29;20056;-75
2022/09/28 07:37:39;;;;;;;3.13;1.63;;;9.70;99.90;;;;;;4929136;29;20076;-75
2022/09/28 07:42:55;;;;;;;3.28;1.50;;;9.80;99.90;;;;;;4930746;29;20103;-71
2022/09/28 07:45:25;;;;;;;3.72;1.90;;;9.80;99.90;;;;;;4909617;29;20369;-75
2022/09/28 07:47:56;;;;;;;16.58;7.72;;;9.70;99.90;;;;;;4980178;28;20061;-76
2022/09/28 07:50:26;;;;;;;4.80;2.08;;;9.70;99.90;;;;;;4966576;28;20402;-75
2022/09/28 07:53:02;;;;;;;3.97;1.80;;;9.70;99.90;;;;;;4949383;29;20577;-74
2022/09/28 07:55:54;;;;;;;4.40;2.05;;;9.70;99.90;;;;;;4954409;28;20525;-75
2022/09/28 07:58:36;;;;;;;2.38;1.40;;;9.70;99.90;;;;;;4951409;28;20075;-76
2022/09/28 08:01:38;;;;;;;4.28;1.30;;;9.60;99.90;;;;;;4961279;28;20901;-73
2022/09/28 08:04:09;;;;;;;3.33;1.60;;;9.40;99.90;;;;;;4968250;28;20051;-72
2022/09/28 08:06:39;;;;;;;2.72;1.40;;;9.20;99.90;;;;;;4978586;28;20111;-74
2022/09/28 08:09:09;;;;;;;2.78;1.20;;;9.00;99.90;;;;;;4954506;28;20051;-72
2022/09/28 08:11:58;;;;;;;2.50;1.40;;;8.90;99.90;;;;;;4967269;29;20051;-75
2022/09/28 08:14:46;;;;;;;3.92;1.70;;;8.90;99.90;;;;;;4936534;28;20047;-73
2022/09/28 08:17:46;;;;;;;2.92;1.48;;;9.00;99.90;;;;;;4960738;29;20170;-72
2022/09/28 08:23:04;;;;;;;5.85;2.13;;;9.00;99.90;;;;;;4955186;29;20058;-75
2022/09/28 08:25:35;;;;;;;3.60;1.80;;;9.10;99.90;;;;;;4949466;29;20072;-74
2022/09/28 08:28:07;;;;;;;3.20;1.67;;;9.20;99.90;;;;;;4983501;28;20051;-75
2022/09/28 08:30:43;;;;;;;3.33;1.60;;;9.20;99.90;;;;;;4940788;28;20058;-73
2022/09/28 08:33:30;;;;;;;4.35;1.73;;;9.40;99.90;;;;;;4962650;29;20534;-74
2022/09/28 08:36:15;;;;;;;3.08;1.63;;;9.50;99.90;;;;;;4967274;28;20738;-74
2022/09/28 08:39:09;;;;;;;6.15;2.13;;;9.50;99.90;;;;;;4971940;28;20529;-73
2022/09/28 08:42:26;;;;;;;3.60;1.88;;;9.70;99.90;;;;;;4961326;28;20513;-74
2022/09/28 08:45:14;;;;;;;;;;;9.80;99.90;;;;;;4961762;28;20612;-72
2022/09/28 08:51:28;;;;;;;3.30;1.52;;;10.20;99.90;;;;;;4949366;29;20134;-73
2022/09/28 08:54:29;;;;;;;3.47;1.58;;;10.30;99.90;;;;;;4984321;28;20062;-76
2022/09/28 08:57:05;;;;;;;3.65;1.77;;;10.50;99.90;;;;;;4962481;29;20043;-75
2022/09/28 08:59:50;;;;;;;4.22;1.80;;;10.40;99.90;;;;;;4945421;29;20043;-75
2022/09/28 09:02:35;;;;;;;5.63;2.00;;;10.70;99.90;;;;;;4964113;28;20027;-73
2022/09/28 09:05:15;;;;;;;3.65;1.90;;;10.90;99.90;;;;;;4957916;28;20075;-75
2022/09/28 09:08:22;;;;;;;4.25;1.60;;;11.00;99.90;;;;;;4966260;28;20456;-73
2022/09/28 09:10:54;;;;;;;10.52;4.30;;;10.80;99.90;;;;;;4942060;29;20050;-76
2022/09/28 09:14:09;;;;;;;5.07;1.85;;;10.90;99.90;;;;;;4957488;29;20070;-75
2022/09/28 09:16:40;;;;;;;5.00;1.80;;;10.80;99.90;;;;;;4912719;29;20549;-74
2022/09/28 09:19:39;;;;;;;2.83;1.63;;;10.90;99.90;;;;;;4920609;29;20129;-74
2022/09/28 09:22:45;;;;;;;3.20;1.88;;;10.60;99.90;;;;;;4918902;29;20043;-73
2022/09/28 09:25:33;;;;;;;3.95;1.90;;;10.60;99.90;;;;;;4904482;29;20051;-74
2022/09/28 09:28:14;;;;;;;3.58;1.67;;;10.70;99.90;;;;;;4913977;29;20063;-75
2022/09/28 09:31:07;;;;;;;2.78;1.83;;;10.60;99.90;;;;;;4904948;29;20067;-76
2022/09/28 09:34:12;;;;;;;5.05;2.00;;;10.80;99.90;;;;;;4932692;29;20063;-76
2022/09/28 09:37:15;;;;;;;3.15;1.80;;;11.00;99.90;;;;;;4937259;29;20072;-74
2022/09/28 09:40:45;;;;;;;2.17;1.70;;;11.10;99.90;;;;;;4921349;29;20083;-74
2022/09/28 09:44:10;;;;;;;2.30;1.83;;;11.00;99.90;;;;;;4915943;29;20097;-74
2022/09/28 09:47:05;;;;;;;3.72;1.95;;;11.10;99.90;;;;;;4913236;29;20056;-75
2022/09/28 09:49:44;;;;;;;3.45;1.95;;;11.40;99.90;;;;;;4906511;29;20364;-74
2022/09/28 09:52:21;;;;;;;3.20;2.00;;;11.70;99.90;;;;;;4903714;29;20059;-73
2022/09/28 09:55:13;;;;;;;4.00;1.75;;;11.80;99.90;;;;;;4916477;29;20513;-75
2022/09/28 09:57:53;;;;;;;3.92;2.17;;;11.90;99.90;;;;;;4930239;29;20095;-72
2022/09/28 10:00:30;;;;;;;;;;;11.90;99.90;;;;;;4921701;29;20087;-73
2022/09/28 10:03:26;;;;;;;4.38;2.10;;;11.90;99.90;;;;;;4930703;29;19929;-74
2022/09/28 10:06:10;;;;;;;4.45;2.10;;;11.90;99.90;;;;;;4896770;29;20040;-75
2022/09/28 10:08:44;;;;;;;2.80;2.00;;;12.20;99.90;;;;;;4936159;29;20043;-73
2022/09/28 10:11:20;;;;;;;2.90;1.92;;;12.30;99.90;;;;;;4902368;29;20186;-76
2022/09/28 10:13:52;;;;;;;3.55;1.95;;;12.40;99.90;;;;;;4903001;29;20091;-74
2022/09/28 10:16:43;;;;;;;3.60;1.90;;;12.80;99.90;;;;;;4925681;29;20135;-75
2022/09/28 10:19:26;;;;;;;3.70;2.20;;;13.10;99.90;;;;;;4939911;29;20356;-75
2022/09/28 10:22:05;;;;;;;5.57;1.98;;;13.30;99.90;;;;;;4947838;29;20457;-76
2022/09/28 10:24:44;;;;;;;3.60;2.30;;;12.80;99.90;;;;;;4957206;28;20047;-74
2022/09/28 10:27:18;;;;;;;2.95;2.05;;;12.60;99.90;;;;;;4960080;28;20545;-76
2022/09/28 10:29:56;;;;;;;3.80;2.40;;;12.60;99.90;;;;;;4938473;29;20071;-76
2022/09/28 10:32:26;;;;;;;8.20;2.55;;;13.00;99.90;;;;;;4955348;28;20057;-75
2022/09/28 10:35:10;;;;;;;;;;;13.30;99.90;;;;;;4937730;29;20070;-76
2022/09/28 10:37:55;;;;;;;5.10;2.50;;;13.50;99.90;;;;;;4958109;28;20013;-76
2022/09/28 10:40:54;;;;;;;3.25;2.30;;;13.60;99.90;;;;;;4954600;28;20134;-75
2022/09/28 10:43:38;;;;;;;4.88;2.50;;;13.30;99.90;;;;;;4936950;29;20046;-76
2022/09/28 10:46:20;;;;;;;3.35;2.38;;;13.30;99.90;;;;;;4934263;29;20502;-76
2022/09/28 10:49:14;;;;;;;2.92;2.30;;;13.10;99.90;;;;;;4953757;28;20055;-75
2022/09/28 10:51:49;;;;;;;4.28;2.60;;;12.70;99.90;;;;;;4922945;28;20429;-75
2022/09/28 10:54:29;;;;;;;4.82;2.55;;;12.60;99.90;;;;;;4945505;29;20114;-73
2022/09/28 10:56:59;;;;;;;11.65;2.53;;;12.20;99.90;;;;;;4951720;29;20058;-74
2022/09/28 10:59:47;;;;;;;3.95;2.70;;;12.40;99.90;;;;;;4953457;28;20510;-76
2022/09/28 11:02:39;;;;;;;4.60;2.50;;;12.50;99.90;;;;;;4952628;28;20541;-75
2022/09/28 11:05:21;;;;;;;3.45;2.58;;;12.70;99.90;;;;;;4966095;28;20058;-75
2022/09/28 11:07:54;;;;;;;3.28;2.60;;;12.90;99.90;;;;;;4941735;29;20039;-74
2022/09/28 11:10:29;;;;;;;3.10;2.53;;;12.80;99.90;;;;;;4948554;28;20047;-72
2022/09/28 11:13:08;;;;;;;3.63;2.50;;;13.00;99.90;;;;;;4951188;28;20043;-73
2022/09/28 11:15:41;;;;;;;4.47;2.95;;;13.20;99.90;;;;;;4941267;28;20048;-74
2022/09/28 11:18:24;;;;;;;2.60;2.40;;;13.30;99.90;;;;;;4960795;28;20472;-74
2022/09/28 11:20:51;;;;;;;5.05;3.25;;;13.30;99.90;;;;;;4932519;29;20070;-74
2022/09/28 11:23:25;;;;;;;4.60;2.97;;;13.60;99.90;;;;;;4952359;28;20043;-73
2022/09/28 11:26:07;;;;;;;3.72;3.10;;;13.70;99.90;;;;;;4962367;28;20042;-74
2022/09/28 11:28:37;;;;;;;5.22;2.90;;;13.70;99.90;;;;;;4946507;28;20043;-73
2022/09/28 11:31:14;;;;;;;3.88;2.83;;;13.80;99.90;;;;;;4953294;28;20055;-73
2022/09/28 11:34:11;;;;;;;2.97;2.60;;;14.20;99.90;;;;;;4951696;28;20409;-74
2022/09/28 11:37:26;;;;;;;4.40;3.00;;;14.50;99.90;;;;;;4950917;29;20059;-74
2022/09/28 11:40:20;;;;;;;5.07;2.97;;;14.20;99.90;;;;;;4962343;28;20086;-73
2022/09/28 11:43:38;;;;;;;3.13;2.75;;;13.40;99.90;;;;;;4961291;28;20040;-74
2022/09/28 11:46:20;;;;;;;3.60;3.05;;;13.00;99.90;;;;;;4913585;29;20382;-75
2022/09/28 11:48:56;;;;;;;5.43;3.08;;;12.80;99.90;;;;;;4916481;29;20130;-74
2022/09/28 11:51:29;;;;;;;3.75;2.75;;;12.80;99.90;;;;;;4924471;29;20147;-75
2022/09/28 11:54:31;;;;;;;5.03;2.90;;;12.60;99.90;;;;;;4931730;29;20134;-74
2022/09/28 11:57:03;;;;;;;4.15;3.00;;;12.30;99.90;;;;;;4911191;29;20518;-73
2022/09/28 12:00:13;;;;;;;4.72;3.13;;;12.30;99.90;;;;;;4923468;29;20126;-73
2022/09/28 12:02:53;;;;;;;3.00;2.70;;;12.40;99.90;;;;;;4913216;29;20047;-73
2022/09/28 12:05:41;;;;;;;5.10;2.90;;;12.60;99.90;;;;;;4930890;29;20424;-73
2022/09/28 12:08:39;;;;;;;4.43;3.20;;;13.20;99.90;;;;;;4898254;29;20051;-73
2022/09/28 12:11:42;;;;;;;4.20;2.90;;;14.00;99.90;;;;;;4917587;29;20179;-73
2022/09/28 12:14:31;;;;;;;3.65;2.95;;;14.00;99.90;;;;;;4908988;29;20443;-74
2022/09/28 12:17:10;;;;;;;5.22;2.83;;;14.20;99.90;;;;;;4937869;29;20067;-74
2022/09/28 12:19:48;;;;;;;3.22;2.92;;;14.60;99.90;;;;;;4925363;29;20067;-71
2022/09/28 12:22:23;;;;;;;5.55;3.20;;;15.10;99.90;;;;;;4953227;28;20131;-74
2022/09/28 12:24:54;;;;;;;3.97;3.00;;;15.10;99.90;;;;;;4953217;28;20050;-76
2022/09/28 12:27:27;;;;;;;6.75;3.67;;;15.30;99.90;;;;;;4953738;28;20043;-78
2022/09/28 12:30:14;;;;;;;3.83;3.20;;;15.60;99.90;;;;;;4954672;29;20249;-77
2022/09/28 12:32:45;;;;;;;6.28;3.58;;;15.90;99.90;;;;;;4961649;28;20445;-78
2022/09/28 12:35:18;;;;;;;4.88;3.50;;;16.20;99.90;;;;;;4919797;29;20054;-77
2022/09/28 12:37:58;;;;;;;6.88;3.90;;;16.10;99.90;;;;;;4952120;28;20047;-80
2022/09/28 12:41:04;;;;;;;4.95;4.03;;;15.20;99.90;;;;;;4960926;28;20623;-78
2022/09/28 12:43:34;;;;;;;5.28;3.70;;;15.20;99.90;;;;;;4935495;29;20051;-79
2022/09/28 12:46:20;;;;;;;5.68;3.75;;;15.70;99.90;;;;;;4952516;28;20047;-77
2022/09/28 12:49:12;;;;;;;4.68;3.25;;;15.40;99.90;;;;;;4952099;29;20414;-78
2022/09/28 12:52:36;;;;;;;3.60;3.30;;;15.40;99.90;;;;;;4951317;28;20031;-79
2022/09/28 12:55:17;;;;;;;4.03;3.65;;;16.70;99.90;;;;;;4945860;29;20299;-77
2022/09/28 12:58:06;;;;;;;4.30;3.83;;;17.30;99.90;;;;;;4948402;29;20446;-78
2022/09/28 13:00:52;;;;;;;6.05;4.03;;;17.00;99.90;;;;;;4949144;28;20047;-78
2022/09/28 13:03:31;;;;;;;4.50;4.07;;;16.00;99.90;;;;;;4931026;28;20070;-75
2022/09/28 13:06:10;;;;;;;4.07;3.67;;;15.30;99.90;;;;;;4945838;28;20063;-75
2022/09/28 13:08:49;;;;;;;3.88;3.47;;;15.00;99.90;;;;;;4943281;29;20142;-75
2022/09/28 13:11:20;;;;;;;4.57;3.63;;;15.70;99.90;;;;;;4950914;28;20083;-75
2022/09/28 13:14:09;;;;;;;5.28;3.90;;;16.60;99.90;;;;;;4934115;29;20047;-76
2022/09/28 13:16:43;;;;;;;4.85;3.85;;;17.90;99.90;;;;;;4949658;29;20047;-76
2022/09/28 13:19:20;;;;;;;4.75;4.15;;;18.60;99.90;;;;;;4942341;28;20421;-74
2022/09/28 13:22:05;;;;;;;4.35;3.95;;;18.20;99.90;;;;;;4951175;28;20197;-76
2022/09/28 13:24:37;;;;;;;4.65;4.15;;;17.70;99.90;;;;;;4949674;28;20058;-74
2022/09/28 13:27:21;;;;;;;5.82;4.38;;;17.90;99.90;;;;;;4948376;29;20059;-76
2022/09/28 13:29:50;;;;;;;5.03;4.53;;;17.70;99.90;;;;;;4949636;28;20066;-76
2022/09/28 13:32:18;;;;;;;6.85;4.63;;;16.80;99.90;;;;;;4949456;29;20514;-74
2022/09/28 13:34:48;;;;;;;5.10;4.60;;;16.60;99.90;;;;;;4934194;29;20070;-77
2022/09/28 13:37:24;;;;;;;5.95;4.50;;;16.90;99.90;;;;;;4950644;28;20058;-76
2022/09/28 13:39:53;;;;;;;6.70;4.80;;;18.00;99.90;;;;;;4953810;28;20062;-76
2022/09/28 13:42:32;;;;;;;5.30;4.80;;;19.00;99.90;;;;;;4949160;29;20057;-76
2022/09/28 13:45:21;;;;;;;4.75;4.30;;;19.60;99.90;;;;;;4916949;29;20062;-76
2022/09/28 13:47:59;;;;;;;5.38;4.70;;;19.80;99.90;;;;;;4952599;28;20554;-74
2022/09/28 13:50:36;;;;;;;5.40;4.57;;;20.00;99.90;;;;;;4949825;29;20043;-74
2022/09/28 13:53:36;;;;;;;5.20;4.75;;;19.90;99.90;;;;;;4935378;28;20066;-76
2022/09/28 13:56:26;;;;;;;6.38;4.70;;;18.90;99.90;;;;;;4942175;29;20596;-77
2022/09/28 13:59:28;;;;;;;6.93;4.60;;;17.50;99.90;;;;;;4934603;29;20083;-78
2022/09/28 14:02:02;;;;;;;5.53;4.88;;;16.70;99.90;;;;;;4958363;28;20468;-76
2022/09/28 14:04:54;;;;;;;5.07;4.68;;;15.90;99.90;;;;;;4930089;29;20405;-77
2022/09/28 14:07:24;;;;;;;6.13;5.00;;;15.60;99.90;;;;;;4930958;29;20082;-74
2022/09/28 14:10:18;;;;;;;7.30;4.70;;;15.30;99.90;;;;;;4952053;28;20098;-77